createdAt,value
2023-05-15T06:45:18.767Z,99000.8
2023-05-15T06:50:55.011Z,99000.3
2023-05-15T06:56:32.254Z,98999.1
2023-05-15T07:02:08.236Z,98995.8
2023-05-15T07:08:09.413Z,98992.4
2023-05-15T07:13:45.069Z,98988
2023-05-15T07:19:26.653Z,98987.8
2023-05-15T07:25:02.642Z,98991
2023-05-15T07:30:38.887Z,98989.2
2023-05-15T07:36:15.175Z,98990.3
2023-05-15T07:41:50.735Z,98993
2023-05-15T07:47:27.222Z,98996
2023-05-15T07:53:05.894Z,98997.5
2023-05-15T07:58:42.113Z,98999.3
2023-05-15T08:04:18.044Z,99000.2
2023-05-15T08:09:54.510Z,98995.8
2023-05-15T08:15:31.657Z,98998.9
2023-05-15T08:21:09.545Z,99000.2
2023-05-15T08:26:45.452Z,98995.9
2023-05-15T08:32:21.604Z,98992.4
2023-05-15T08:37:57.600Z,98989.1
2023-05-15T08:43:33.656Z,98973.6
2023-05-15T08:49:09.613Z,98977.1
2023-05-15T08:54:48.906Z,98973.3
2023-05-15T09:00:25.630Z,98974
2023-05-15T09:06:03.122Z,98963.3
2023-05-15T09:11:38.851Z,98964.3
2023-05-15T09:17:14.699Z,98971.2
2023-05-15T09:22:54.480Z,98970.8
2023-05-15T09:28:30.939Z,98964.2
2023-05-15T09:34:07.049Z,98964.4
2023-05-15T09:39:44.036Z,98959.8
2023-05-15T09:45:44.951Z,98960.2
2023-05-15T09:51:17.857Z,98964
2023-05-15T09:56:54.994Z,98956.2
2023-05-15T10:02:31.686Z,98952.9
2023-05-15T10:08:17.655Z,98949.4
2023-05-15T10:13:53.081Z,98941.6
2023-05-15T10:19:30.325Z,98937.3
2023-05-15T10:25:06.091Z,98925.5
2023-05-15T10:30:41.465Z,98920.1
2023-05-15T10:36:18.355Z,98917.1
2023-05-15T10:41:55.594Z,98913.3
2023-05-15T10:47:31.042Z,98919.5
2023-05-15T10:53:08.147Z,98911.5
2023-05-15T10:58:43.898Z,98916.7
2023-05-15T11:04:21.504Z,98915.2
2023-05-15T11:09:56.964Z,98901.4
2023-05-15T11:15:34.297Z,98902.3
2023-05-15T11:21:19.097Z,98901.1
2023-05-15T11:26:54.591Z,98898.4
2023-05-15T11:32:33.987Z,98895.9
2023-05-15T11:38:28.673Z,98885.8
2023-05-15T11:44:26.193Z,98882.4
2023-05-15T11:49:59.445Z,98873.9
2023-05-15T11:55:37.019Z,98868.9
2023-05-15T12:01:12.000Z,98869.3
2023-05-15T12:06:47.995Z,98866.7
2023-05-15T12:12:23.530Z,98863.4
2023-05-15T12:18:00.335Z,98861.2
2023-05-15T12:23:37.261Z,98857.3
2023-05-15T12:29:14.252Z,98856.8
2023-05-15T12:34:50.654Z,98852.3
2023-05-15T12:40:27.815Z,98853.9
2023-05-15T12:46:29.187Z,98857.9
2023-05-15T12:52:03.124Z,98839.6
2023-05-15T12:57:40.388Z,98837.7
2023-05-15T13:03:20.260Z,98843
2023-05-15T13:08:56.503Z,98838.5
2023-05-15T13:14:32.032Z,98833.9
2023-05-15T13:20:07.394Z,98832
2023-05-15T13:25:43.514Z,98828.4
2023-05-15T13:31:19.333Z,98816.7
2023-05-15T13:36:56.470Z,98810
2023-05-15T13:42:31.978Z,98810.4
2023-05-15T13:48:08.577Z,98797.3
2023-05-15T13:53:53.327Z,98793.1
2023-05-15T13:59:29.568Z,98790.1
2023-05-15T14:05:04.344Z,98781.5
2023-05-15T14:10:40.357Z,98775.4
2023-05-15T14:16:18.126Z,98773.6
2023-05-15T14:21:53.593Z,98783.2
2023-05-15T14:27:28.485Z,98770.2
2023-05-15T14:33:04.542Z,98764
2023-05-15T14:38:39.889Z,98766.9
2023-05-15T14:44:37.032Z,98764.7
2023-05-15T14:50:10.160Z,98761.9
2023-05-15T14:55:45.020Z,98763.1
2023-05-15T15:01:21.453Z,98754.9
2023-05-15T15:06:57.521Z,98751.9
2023-05-15T15:12:34.187Z,98756.9
2023-05-15T15:18:09.983Z,98755.6
2023-05-15T15:23:45.722Z,98763.4
2023-05-15T15:29:22.038Z,98772.3
2023-05-15T15:34:58.670Z,98772.8
2023-05-15T15:40:34.157Z,98780.5
2023-05-15T15:46:10.729Z,98782.4
2023-05-15T15:51:50.432Z,98787.3
2023-05-15T15:57:27.855Z,98802.4
2023-05-15T16:03:05.160Z,98805
2023-05-15T16:08:42.712Z,98822.6
2023-05-15T16:14:26.855Z,98824.4
2023-05-15T16:20:01.945Z,98828.2
2023-05-15T16:25:36.971Z,98820.5
2023-05-15T16:31:12.783Z,98829.7
2023-05-15T16:36:48.223Z,98830.4
2023-05-15T16:42:23.918Z,98829.9
2023-05-15T16:47:59.906Z,98826.3
2023-05-15T16:53:36.251Z,98829.2
2023-05-15T16:59:12.278Z,98824.7
2023-05-15T17:04:48.921Z,98829.3
2023-05-15T17:10:25.892Z,98834.8
2023-05-15T17:16:14.746Z,98837.1
2023-05-15T17:21:50.272Z,98839.2
2023-05-15T17:27:27.097Z,98841.5
2023-05-15T17:33:02.691Z,98853.7
2023-05-15T17:38:38.358Z,98855.6
2023-05-15T17:44:14.235Z,98855.5
2023-05-15T17:49:50.298Z,98858.6
2023-05-15T17:55:26.734Z,98855.8
2023-05-15T18:01:03.782Z,98859.7
2023-05-15T18:06:41.278Z,98862.8
2023-05-15T18:12:16.742Z,98859.1
2023-05-15T18:17:53.816Z,98864.5
2023-05-15T18:23:30.721Z,98865.2
2023-05-15T18:29:13.291Z,98867.9
2023-05-15T18:34:49.989Z,98871.8
2023-05-15T18:40:26.069Z,98872
2023-05-15T18:46:01.249Z,98870.5
2023-05-15T18:51:37.663Z,98875.6
2023-05-15T18:57:13.219Z,98879.7
2023-05-15T19:02:50.149Z,98883.4
2023-05-15T19:08:26.198Z,98891
2023-05-15T19:14:06.022Z,98898.4
2023-05-15T19:19:41.918Z,98902.5
2023-05-15T19:25:18.384Z,98905.1
2023-05-15T19:30:53.650Z,98905.7
2023-05-15T19:36:31.723Z,98910.5
2023-05-15T19:42:15.487Z,98909.9
2023-05-15T19:47:51.053Z,98914.8
2023-05-15T19:53:26.981Z,98920.1
2023-05-15T19:59:02.326Z,98923.3
2023-05-15T20:04:39.164Z,98930.2
